Time;durP1;ratioP1;P1;durP2;ratioP2;P2;SDS_P1;SDS_P2;PMS_P1;PMS_P2;Temp;Humidity;BMP_temperature;BMP_pressure;BME280_temperature;BME280_humidity;BME280_pressure;Samples;Min_cycle;Max_cycle;Signal;HPM_P1;HPM_P2
2023/05/25 00:01:42;;;;;;;10.98;5.32;;;10.90;99.90;;;;;;4977913;28;20588;-72
2023/05/25 00:04:09;;;;;;;13.75;4.93;;;10.90;99.90;;;;;;4997408;28;20115;-72
2023/05/25 00:06:40;;;;;;;10.40;5.05;;;10.90;99.90;;;;;;4987834;28;20054;-73
2023/05/25 00:09:06;;;;;;;16.48;4.78;;;10.80;99.90;;;;;;4977508;28;20075;-72
2023/05/25 00:11:31;;;;;;;17.45;5.35;;;10.80;99.90;;;;;;4974133;28;20042;-72
2023/05/25 00:13:57;;;;;;;8.25;4.70;;;10.80;99.90;;;;;;4976964;28;20417;-72
2023/05/25 00:16:23;;;;;;;12.57;5.28;;;10.70;99.90;;;;;;4971220;28;20065;-73
2023/05/25 00:18:48;;;;;;;12.98;5.07;;;10.70;99.90;;;;;;4968263;28;20062;-72
2023/05/25 00:21:14;;;;;;;14.48;5.72;;;10.60;99.90;;;;;;4958602;28;20050;-72
2023/05/25 00:23:41;;;;;;;20.30;5.93;;;10.70;99.90;;;;;;4957714;28;20043;-72
2023/05/25 00:26:06;;;;;;;15.52;5.85;;;10.70;99.90;;;;;;4959164;28;20035;-72
2023/05/25 00:28:32;;;;;;;10.45;5.15;;;10.70;99.90;;;;;;4974877;28;20499;-72
2023/05/25 00:30:58;;;;;;;14.18;5.50;;;10.70;99.90;;;;;;4980325;28;20470;-72
2023/05/25 00:33:23;;;;;;;15.20;5.85;;;10.70;99.90;;;;;;4958518;28;20041;-72
2023/05/25 00:35:49;;;;;;;12.27;5.53;;;10.70;99.90;;;;;;4991629;28;20796;-72
2023/05/25 00:38:18;;;;;;;14.38;5.50;;;10.70;99.90;;;;;;4980317;28;20037;-72
2023/05/25 00:40:45;;;;;;;12.82;5.95;;;10.60;99.90;;;;;;4977355;28;20860;-72
2023/05/25 00:43:11;;;;;;;12.38;5.60;;;10.60;99.90;;;;;;4977066;28;20022;-72
2023/05/25 00:45:37;;;;;;;15.02;6.47;;;10.60;99.90;;;;;;4996750;28;20029;-72
2023/05/25 00:48:04;;;;;;;12.05;5.82;;;10.50;99.90;;;;;;4965457;28;20061;-72
2023/05/25 00:50:41;;;;;;;11.85;5.55;;;10.50;99.90;;;;;;4962855;28;20363;-72
2023/05/25 00:53:08;;;;;;;12.48;5.80;;;10.40;99.90;;;;;;4972201;28;20023;-72
2023/05/25 00:55:49;;;;;;;17.02;5.82;;;10.40;99.90;;;;;;4980935;28;20038;-72
2023/05/25 00:58:19;;;;;;;17.43;6.53;;;10.40;99.90;;;;;;4984195;28;20091;-72
2023/05/25 01:00:48;;;;;;;15.20;6.20;;;10.30;99.90;;;;;;5000352;28;20026;-73
2023/05/25 01:03:20;;;;;;;17.63;6.68;;;10.30;99.90;;;;;;4981145;28;20041;-72
2023/05/25 01:05:47;;;;;;;14.02;6.45;;;10.30;99.90;;;;;;4980573;28;20761;-72
2023/05/25 01:08:15;;;;;;;12.27;5.78;;;10.30;99.90;;;;;;4978286;28;20037;-72
2023/05/25 01:10:43;;;;;;;20.33;6.95;;;10.30;99.90;;;;;;4973078;28;20038;-71
2023/05/25 01:13:09;;;;;;;13.52;6.90;;;10.30;99.90;;;;;;4985081;28;20078;-72
2023/05/25 01:15:37;;;;;;;15.70;6.07;;;10.30;99.90;;;;;;4991389;28;20181;-72
2023/05/25 01:18:03;;;;;;;18.08;6.35;;;10.20;99.90;;;;;;4964906;28;20570;-71
2023/05/25 01:20:29;;;;;;;15.88;5.82;;;10.20;99.90;;;;;;4963066;28;20039;-72
2023/05/25 01:23:12;;;;;;;14.85;5.97;;;10.20;99.90;;;;;;4961643;28;20054;-72
2023/05/25 01:25:46;;;;;;;11.90;5.22;;;10.10;99.90;;;;;;4970500;28;20034;-72
2023/05/25 01:28:20;;;;;;;10.73;6.28;;;10.10;99.90;;;;;;4981916;28;20023;-72
2023/05/25 01:30:48;;;;;;;13.13;5.97;;;10.00;99.90;;;;;;4978384;28;20047;-72
2023/05/25 01:33:17;;;;;;;13.38;6.28;;;10.00;99.90;;;;;;4970860;28;20079;-72
2023/05/25 01:35:43;;;;;;;14.68;6.13;;;10.00;99.90;;;;;;4999485;28;20200;-72
2023/05/25 01:38:10;;;;;;;14.27;6.25;;;9.90;99.90;;;;;;4993776;28;20269;-72
2023/05/25 01:40:35;;;;;;;16.48;6.70;;;9.90;99.90;;;;;;4962669;28;20039;-72
2023/05/25 01:43:01;;;;;;;12.15;6.60;;;9.90;99.90;;;;;;4973021;28;20509;-72
2023/05/25 01:45:27;;;;;;;12.30;6.57;;;9.80;99.90;;;;;;4997427;28;20084;-71
2023/05/25 01:47:52;;;;;;;14.32;6.80;;;9.90;99.90;;;;;;4968977;28;20034;-72
2023/05/25 01:50:32;;;;;;;15.02;6.53;;;9.80;99.90;;;;;;4961072;28;20506;-72
2023/05/25 01:53:17;;;;;;;14.82;6.68;;;9.80;99.90;;;;;;4974248;28;20034;-72
2023/05/25 01:55:52;;;;;;;16.27;6.85;;;9.70;99.90;;;;;;4959694;28;20023;-72
2023/05/25 01:58:19;;;;;;;15.55;6.55;;;9.70;99.90;;;;;;4970587;28;20026;-71
2023/05/25 02:00:48;;;;;;;10.00;6.63;;;9.60;99.90;;;;;;4981719;28;20027;-72
2023/05/25 02:03:14;;;;;;;14.52;6.70;;;9.60;99.90;;;;;;4973882;28;20041;-72
2023/05/25 02:05:44;;;;;;;13.60;5.85;;;9.60;99.90;;;;;;4978031;28;20383;-72
2023/05/25 02:08:10;;;;;;;11.38;6.53;;;9.60;99.90;;;;;;4986713;28;20060;-72
2023/05/25 02:10:36;;;;;;;18.38;6.88;;;9.60;99.90;;;;;;4984177;28;20070;-71
2023/05/25 02:13:01;;;;;;;14.57;5.90;;;9.60;99.90;;;;;;4979532;28;20043;-72
2023/05/25 02:15:33;;;;;;;14.98;6.43;;;9.50;99.90;;;;;;4970611;28;20031;-71
2023/05/25 02:17:59;;;;;;;;;;;9.50;99.90;;;;;;4971966;28;20605;-72
2023/05/25 02:20:25;;;;;;;12.48;7.07;;;9.50;99.90;;;;;;4961860;28;20383;-71
2023/05/25 02:22:51;;;;;;;13.40;7.35;;;9.50;99.90;;;;;;5028435;28;20030;-72
2023/05/25 02:25:17;;;;;;;13.98;6.72;;;9.50;99.90;;;;;;4967367;28;20030;-71
2023/05/25 02:27:43;;;;;;;17.90;7.57;;;9.40;99.90;;;;;;4960658;28;20147;-71
2023/05/25 02:30:09;;;;;;;16.30;6.75;;;9.40;99.90;;;;;;4978104;28;20627;-72
2023/05/25 02:32:34;;;;;;;17.65;7.90;;;9.40;99.90;;;;;;4973770;28;20038;-72
2023/05/25 02:35:00;;;;;;;14.20;8.00;;;9.40;99.90;;;;;;4998176;28;20026;-71
2023/05/25 02:37:26;;;;;;;21.67;8.13;;;9.40;99.90;;;;;;4983531;28;20049;-71
2023/05/25 02:39:51;;;;;;;16.63;8.82;;;9.40;99.90;;;;;;4973282;28;20026;-71
2023/05/25 02:42:18;;;;;;;18.48;8.80;;;9.40;99.90;;;;;;4960533;28;20031;-71
2023/05/25 02:44:47;;;;;;;20.65;9.88;;;9.40;99.90;;;;;;4961813;28;20030;-71
2023/05/25 02:47:17;;;;;;;19.27;8.85;;;9.40;99.90;;;;;;4963061;28;20034;-71
2023/05/25 02:49:44;;;;;;;17.80;9.65;;;9.40;99.90;;;;;;4962735;28;20133;-71
2023/05/25 02:52:09;;;;;;;23.52;10.00;;;9.40;99.90;;;;;;4994711;28;20046;-71
2023/05/25 02:54:35;;;;;;;27.27;10.68;;;9.40;99.90;;;;;;4970792;28;20034;-71
2023/05/25 02:57:03;;;;;;;25.60;10.52;;;9.40;99.90;;;;;;4960842;28;20081;-71
2023/05/25 02:59:29;;;;;;;21.58;10.00;;;9.40;99.90;;;;;;4962082;28;20023;-71
2023/05/25 03:01:55;;;;;;;22.27;10.52;;;9.40;99.90;;;;;;4972207;28;20110;-71
2023/05/25 03:04:20;;;;;;;23.88;10.75;;;9.40;99.90;;;;;;4974580;28;20082;-71
2023/05/25 03:06:46;;;;;;;20.85;11.05;;;9.40;99.90;;;;;;4992845;28;20042;-71
2023/05/25 03:09:12;;;;;;;25.30;11.15;;;9.40;99.90;;;;;;4975142;28;20501;-71
2023/05/25 03:11:38;;;;;;;27.98;11.68;;;9.40;99.90;;;;;;4961956;28;20131;-71
2023/05/25 03:14:04;;;;;;;28.73;11.45;;;9.40;99.90;;;;;;4967736;28;20148;-71
2023/05/25 03:16:30;;;;;;;25.33;11.05;;;9.40;99.90;;;;;;4979701;28;20121;-71
2023/05/25 03:18:56;;;;;;;23.27;12.40;;;9.50;99.90;;;;;;4968187;28;20197;-71
2023/05/25 03:21:22;;;;;;;26.15;11.75;;;9.50;99.90;;;;;;4988769;28;20124;-71
2023/05/25 03:23:48;;;;;;;25.77;11.70;;;9.50;99.90;;;;;;4984242;28;20490;-71
2023/05/25 03:26:16;;;;;;;26.85;11.27;;;9.40;99.90;;;;;;4967595;28;20080;-72
2023/05/25 03:28:42;;;;;;;28.52;12.07;;;9.40;99.90;;;;;;4983185;28;20041;-71
2023/05/25 03:31:07;;;;;;;25.17;11.32;;;9.40;99.90;;;;;;4988323;28;20444;-71
2023/05/25 03:33:33;;;;;;;22.00;12.10;;;9.40;99.90;;;;;;4967214;28;20382;-70
2023/05/25 03:35:59;;;;;;;27.92;11.70;;;9.40;99.90;;;;;;4979114;28;20034;-70
2023/05/25 03:38:24;;;;;;;28.13;11.95;;;9.40;99.90;;;;;;4973077;28;20104;-71
2023/05/25 03:40:50;;;;;;;25.70;11.45;;;9.40;99.90;;;;;;4961422;28;20034;-71
2023/05/25 03:43:16;;;;;;;23.92;11.10;;;9.40;99.90;;;;;;4998341;28;20080;-71
2023/05/25 03:45:41;;;;;;;27.98;12.15;;;9.50;99.90;;;;;;4986392;28;20034;-71
2023/05/25 03:48:07;;;;;;;27.77;11.75;;;9.40;99.90;;;;;;4964146;28;20037;-71
2023/05/25 03:50:33;;;;;;;24.05;12.30;;;9.40;99.90;;;;;;4978564;28;20073;-71
2023/05/25 03:52:59;;;;;;;29.55;12.35;;;9.40;99.90;;;;;;4962694;28;20053;-71
2023/05/25 03:55:24;;;;;;;27.00;11.80;;;9.40;99.90;;;;;;4961759;28;20038;-71
2023/05/25 03:57:50;;;;;;;25.92;12.23;;;9.40;99.90;;;;;;4961512;28;20027;-71
2023/05/25 04:00:16;;;;;;;24.65;12.25;;;9.40;99.90;;;;;;4998800;28;20575;-71
2023/05/25 04:02:42;;;;;;;24.67;10.77;;;9.40;99.90;;;;;;4985018;28;20409;-71
2023/05/25 04:05:08;;;;;;;26.90;12.05;;;9.40;99.90;;;;;;4970012;28;20511;-71
2023/05/25 04:07:35;;;;;;;25.83;12.20;;;9.40;99.90;;;;;;4971346;28;20501;-71
2023/05/25 04:10:02;;;;;;;24.67;11.90;;;9.40;99.90;;;;;;4961554;28;20122;-71
2023/05/25 04:12:27;;;;;;;25.77;11.98;;;9.40;99.90;;;;;;4959283;28;20129;-71
2023/05/25 04:14:53;;;;;;;28.10;12.82;;;9.40;99.90;;;;;;4961369;28;20212;-71
2023/05/25 04:17:23;;;;;;;21.52;11.25;;;9.40;99.90;;;;;;4967310;28;20039;-71
2023/05/25 04:19:49;;;;;;;24.17;11.20;;;9.50;99.90;;;;;;4960108;28;20311;-71
2023/05/25 04:22:14;;;;;;;25.20;11.98;;;9.40;99.90;;;;;;4964821;28;20054;-71
2023/05/25 04:24:40;;;;;;;26.48;12.30;;;9.50;99.90;;;;;;4977206;28;20037;-71
2023/05/25 04:27:06;;;;;;;24.08;12.20;;;9.50;99.90;;;;;;4979188;28;20058;-71
2023/05/25 04:29:32;;;;;;;24.65;11.88;;;9.50;99.90;;;;;;4978016;28;20449;-72
2023/05/25 04:31:57;;;;;;;19.63;10.75;;;9.50;99.90;;;;;;4981859;28;20045;-73
2023/05/25 04:34:23;;;;;;;24.23;12.85;;;9.60;99.90;;;;;;4976619;28;20033;-71
2023/05/25 04:36:49;;;;;;;24.25;12.43;;;9.60;99.90;;;;;;4976527;28;20465;-71
2023/05/25 04:39:14;;;;;;;29.17;12.20;;;9.80;99.90;;;;;;4973472;28;20038;-71
2023/05/25 04:41:41;;;;;;;23.80;12.35;;;9.80;99.90;;;;;;4979533;28;20027;-71
2023/05/25 04:44:07;;;;;;;25.50;12.68;;;9.90;99.90;;;;;;4978616;28;20510;-71
2023/05/25 04:46:36;;;;;;;27.15;13.07;;;10.10;99.90;;;;;;4973534;28;20151;-71
2023/05/25 04:49:03;;;;;;;27.13;12.32;;;10.20;99.90;;;;;;4969122;28;20041;-71
2023/05/25 04:51:29;;;;;;;18.50;11.30;;;10.50;99.90;;;;;;4978822;28;20054;-71
2023/05/25 04:53:54;;;;;;;23.73;11.70;;;10.60;99.90;;;;;;4961836;28;20031;-71
2023/05/25 04:56:24;;;;;;;23.85;11.30;;;10.80;99.90;;;;;;4960289;28;20100;-71
2023/05/25 04:58:50;;;;;;;26.23;10.95;;;11.00;99.90;;;;;;4974147;28;20036;-70
2023/05/25 05:01:16;;;;;;;25.15;11.35;;;11.10;99.90;;;;;;4997395;28;20113;-71
2023/05/25 05:03:42;;;;;;;20.92;10.38;;;11.30;99.90;;;;;;4975700;28;20127;-71
2023/05/25 05:06:09;;;;;;;17.33;9.63;;;11.50;99.90;;;;;;4961678;28;20050;-71
2023/05/25 05:08:35;;;;;;;21.35;10.35;;;11.60;99.90;;;;;;4983634;28;20065;-71
2023/05/25 05:11:00;;;;;;;20.63;10.30;;;11.80;99.90;;;;;;4964008;28;20062;-71
2023/05/25 05:13:26;;;;;;;21.65;9.85;;;11.90;99.90;;;;;;4980317;28;20035;-71
2023/05/25 05:15:52;;;;;;;21.00;10.45;;;12.10;99.90;;;;;;4958336;28;20077;-71
2023/05/25 05:18:18;;;;;;;18.70;9.23;;;12.20;99.90;;;;;;4960493;28;20027;-71
2023/05/25 05:20:44;;;;;;;18.92;9.85;;;12.30;99.90;;;;;;4961569;28;20038;-71
2023/05/25 05:23:10;;;;;;;21.38;10.15;;;12.40;99.90;;;;;;4964391;28;20087;-71
2023/05/25 05:25:36;;;;;;;20.92;9.85;;;12.50;99.90;;;;;;4997507;28;20030;-71
2023/05/25 05:28:02;;;;;;;20.02;10.02;;;12.60;99.90;;;;;;4975207;28;20026;-71
2023/05/25 05:30:28;;;;;;;21.25;9.65;;;12.70;99.90;;;;;;4969885;28;20096;-70
2023/05/25 05:32:54;;;;;;;20.85;10.90;;;12.70;99.90;;;;;;4963607;28;20567;-71
2023/05/25 05:35:20;;;;;;;18.05;9.93;;;12.80;99.90;;;;;;4962598;28;20456;-72
2023/05/25 05:37:46;;;;;;;21.75;10.18;;;12.90;99.90;;;;;;4959577;28;20035;-72
2023/05/25 05:40:12;;;;;;;17.88;9.93;;;13.00;99.90;;;;;;4979049;28;20022;-72
2023/05/25 05:42:38;;;;;;;16.90;9.70;;;13.00;99.90;;;;;;4994784;28;20078;-72
2023/05/25 05:45:04;;;;;;;18.73;9.52;;;13.10;99.90;;;;;;4982295;28;20026;-72
2023/05/25 05:47:29;;;;;;;20.92;10.52;;;13.10;99.90;;;;;;4980146;28;20353;-72
2023/05/25 05:49:55;;;;;;;17.98;9.38;;;13.20;99.90;;;;;;4963583;28;20043;-72
2023/05/25 05:52:21;;;;;;;21.27;9.85;;;13.20;99.90;;;;;;4956957;28;20047;-72
2023/05/25 05:54:47;;;;;;;22.75;10.48;;;13.30;99.90;;;;;;4973262;28;20873;-72
2023/05/25 05:57:12;;;;;;;18.15;9.07;;;13.40;99.90;;;;;;4977250;28;20034;-72
2023/05/25 05:59:38;;;;;;;18.23;9.60;;;13.40;99.90;;;;;;4964266;28;20165;-72
2023/05/25 06:02:06;;;;;;;18.05;9.90;;;13.50;99.90;;;;;;4960224;28;20057;-72
2023/05/25 06:04:32;;;;;;;19.63;9.82;;;13.60;99.90;;;;;;4958034;28;20030;-72
2023/05/25 06:06:57;;;;;;;20.45;10.00;;;13.60;99.90;;;;;;4976212;28;20740;-70
2023/05/25 06:09:25;;;;;;;118.45;54.30;;;13.80;99.90;;;;;;4966066;28;20035;-71
2023/05/25 06:11:51;;;;;;;42.03;20.45;;;13.90;99.90;;;;;;4983207;28;20060;-70
2023/05/25 06:14:16;;;;;;;21.77;10.27;;;14.10;99.90;;;;;;4969281;28;20030;-73
2023/05/25 06:16:42;;;;;;;18.70;9.50;;;14.20;99.90;;;;;;4974393;28;20034;-73
2023/05/25 06:19:08;;;;;;;18.38;9.05;;;14.30;99.90;;;;;;4958972;28;20027;-72
2023/05/25 06:21:34;;;;;;;15.93;9.20;;;14.60;99.90;;;;;;4963913;28;20019;-73
2023/05/25 06:23:59;;;;;;;18.75;8.77;;;14.80;99.90;;;;;;4962526;28;20328;-70
2023/05/25 06:26:26;;;;;;;20.85;9.85;;;15.00;99.90;;;;;;4964363;28;20493;-72
2023/05/25 06:28:51;;;;;;;23.90;11.15;;;15.30;99.90;;;;;;4986037;28;20037;-72
2023/05/25 06:31:17;;;;;;;22.60;8.65;;;15.50;99.90;;;;;;4990808;28;20096;-71
2023/05/25 06:33:43;;;;;;;14.63;8.13;;;15.70;99.90;;;;;;4969451;28;20121;-72
2023/05/25 06:36:09;;;;;;;20.10;7.93;;;15.50;99.90;;;;;;4977911;28;20061;-72
2023/05/25 06:38:35;;;;;;;18.95;7.68;;;15.90;99.90;;;;;;4981616;28;20026;-72
2023/05/25 06:41:03;;;;;;;19.30;9.80;;;16.30;99.90;;;;;;4973336;28;20146;-69
2023/05/25 06:43:30;;;;;;;18.05;6.80;;;16.60;99.90;;;;;;4966544;28;20758;-72
2023/05/25 06:45:57;;;;;;;15.30;6.90;;;16.70;99.90;;;;;;4976797;28;20029;-73
2023/05/25 06:48:22;;;;;;;15.23;6.43;;;16.70;99.90;;;;;;4986534;28;20115;-72
2023/05/25 06:50:48;;;;;;;9.85;6.20;;;16.70;99.90;;;;;;4974216;28;20054;-72
2023/05/25 06:53:14;;;;;;;13.95;6.10;;;16.70;99.90;;;;;;4977371;28;20031;-72
2023/05/25 06:55:40;;;;;;;13.75;6.22;;;16.40;99.90;;;;;;4980479;28;20038;-72
2023/05/25 06:58:05;;;;;;;12.25;5.78;;;16.20;99.90;;;;;;4966982;28;20066;-72
2023/05/25 07:00:31;;;;;;;18.98;5.43;;;16.30;99.90;;;;;;4966852;28;20069;-72
2023/05/25 07:02:57;;;;;;;13.70;6.03;;;16.40;99.90;;;;;;4957435;28;20038;-72
2023/05/25 07:05:22;;;;;;;13.73;5.20;;;16.40;99.90;;;;;;4958090;28;20039;-72
2023/05/25 07:07:48;;;;;;;14.02;4.95;;;16.50;99.90;;;;;;4957912;28;20026;-72
2023/05/25 07:10:14;;;;;;;16.08;5.50;;;16.30;99.90;;;;;;4958271;28;20034;-72
2023/05/25 07:12:39;;;;;;;13.27;3.75;;;16.20;99.90;;;;;;4957712;28;20135;-72
2023/05/25 07:15:06;;;;;;;11.20;4.05;;;15.90;99.90;;;;;;4963405;28;20022;-72
2023/05/25 07:17:31;;;;;;;10.32;4.10;;;16.00;99.90;;;;;;4960762;28;20035;-72
2023/05/25 07:19:57;;;;;;;10.70;3.47;;;16.00;99.90;;;;;;4964354;28;20079;-72
2023/05/25 07:22:24;;;;;;;10.82;3.20;;;15.90;99.90;;;;;;4965293;28;21006;-72
2023/05/25 07:24:49;;;;;;;11.30;3.30;;;16.10;99.90;;;;;;4968722;28;20034;-72
2023/05/25 07:27:15;;;;;;;14.13;3.90;;;16.40;99.90;;;;;;4969118;28;20036;-72
2023/05/25 07:29:41;;;;;;;11.95;3.50;;;16.80;99.90;;;;;;4968154;28;20117;-72
2023/05/25 07:32:07;;;;;;;11.25;3.20;;;17.40;99.90;;;;;;4962280;28;20049;-72
2023/05/25 07:34:33;;;;;;;6.78;2.75;;;17.80;97.80;;;;;;4968644;28;20037;-72
2023/05/25 07:36:59;;;;;;;11.38;2.70;;;18.10;95.60;;;;;;4961497;28;20053;-72
2023/05/25 07:39:25;;;;;;;11.82;2.97;;;19.40;95.50;;;;;;4974335;28;20030;-73
2023/05/25 07:41:51;;;;;;;9.45;2.63;;;20.80;83.20;;;;;;4963720;28;20042;-72
2023/05/25 07:44:16;;;;;;;8.98;2.67;;;22.90;74.60;;;;;;4961991;28;20027;-73
2023/05/25 07:46:43;;;;;;;7.03;2.58;;;23.50;54.70;;;;;;4956950;28;20034;-73
2023/05/25 07:49:14;;;;;;;9.48;2.42;;;23.70;55.20;;;;;;4955959;28;20484;-72
2023/05/25 07:51:42;;;;;;;6.68;2.40;;;25.40;52.10;;;;;;4958267;28;20126;-72
2023/05/25 07:54:07;;;;;;;9.52;2.83;;;27.10;46.30;;;;;;4958980;28;20035;-72
2023/05/25 07:56:33;;;;;;;9.57;2.67;;;29.20;45.10;;;;;;4962342;28;20026;-72
2023/05/25 07:58:59;;;;;;;8.52;2.58;;;29.30;40.90;;;;;;4960469;28;20078;-73
2023/05/25 08:01:25;;;;;;;9.93;3.10;;;27.40;38.00;;;;;;4956772;28;20428;-73
2023/05/25 08:03:51;;;;;;;9.73;2.35;;;25.00;42.10;;;;;;4957552;28;20027;-73
2023/05/25 08:06:17;;;;;;;8.35;2.63;;;24.50;48.10;;;;;;4956324;28;20525;-73
2023/05/25 08:08:43;;;;;;;12.13;2.42;;;25.70;45.30;;;;;;4964067;28;20138;-72
2023/05/25 08:11:10;;;;;;;10.75;2.92;;;25.20;46.50;;;;;;4962263;28;20500;-72
2023/05/25 08:13:36;;;;;;;9.50;2.55;;;25.80;44.40;;;;;;4961748;28;20113;-72
2023/05/25 08:16:01;;;;;;;10.52;2.97;;;26.80;42.60;;;;;;4963740;28;20681;-73
2023/05/25 08:18:27;;;;;;;8.57;2.60;;;27.50;43.50;;;;;;4961572;28;20092;-72
2023/05/25 08:20:52;;;;;;;8.63;2.25;;;27.80;41.10;;;;;;4955420;28;20030;-72
2023/05/25 08:23:19;;;;;;;7.60;1.90;;;29.20;39.60;;;;;;4970649;28;20063;-72
2023/05/25 08:25:45;;;;;;;9.30;2.47;;;30.90;37.80;;;;;;4964475;28;20065;-72
2023/05/25 08:28:10;;;;;;;8.25;2.13;;;32.30;33.70;;;;;;4267049;28;10000721;-73
2023/05/25 08:30:36;;;;;;;7.03;2.08;;;33.50;31.60;;;;;;4950087;28;20034;-72
2023/05/25 08:33:02;;;;;;;6.32;1.98;;;32.90;30.40;;;;;;4951503;28;20042;-72
2023/05/25 08:35:28;;;;;;;10.02;2.80;;;31.50;33.20;;;;;;4957636;28;20406;-73
2023/05/25 08:37:53;;;;;;;11.25;2.55;;;30.50;33.10;;;;;;4962066;28;20512;-72
2023/05/25 08:40:25;;;;;;;7.20;2.20;;;29.10;35.10;;;;;;4970507;28;20395;-70
2023/05/25 08:42:50;;;;;;;7.93;2.80;;;29.40;35.10;;;;;;4963707;28;20086;-72
2023/05/25 08:45:16;;;;;;;9.45;2.65;;;28.40;36.00;;;;;;4970229;28;20034;-71
2023/05/25 08:47:43;;;;;;;7.82;2.60;;;27.80;37.20;;;;;;4962211;28;20113;-71
2023/05/25 08:50:11;;;;;;;6.07;2.42;;;26.90;39.40;;;;;;4958988;28;20023;-71
2023/05/25 08:52:42;;;;;;;6.10;2.17;;;25.60;43.40;;;;;;4967151;28;20090;-71
2023/05/25 08:55:08;;;;;;;8.80;2.78;;;24.80;45.00;;;;;;4956514;28;20030;-71
2023/05/25 08:58:04;;;;;;;12.45;2.55;;;23.50;44.90;;;;;;4952363;28;20260;-70
2023/05/25 09:00:37;;;;;;;10.30;2.70;;;23.00;49.60;;;;;;4959576;28;20091;-70
2023/05/25 09:03:09;;;;;;;8.75;2.95;;;22.30;52.70;;;;;;4958050;28;20038;-70
2023/05/25 09:05:35;;;;;;;9.85;2.33;;;22.50;55.70;;;;;;4971280;28;20046;-70
2023/05/25 09:08:09;;;;;;;9.43;2.42;;;25.40;53.10;;;;;;4973281;28;20046;-71
2023/05/25 09:10:36;;;;;;;9.40;2.53;;;28.70;42.20;;;;;;4958950;28;20059;-71
2023/05/25 09:13:02;;;;;;;9.20;2.47;;;30.90;39.00;;;;;;4959283;28;20301;-71
2023/05/25 09:15:28;;;;;;;5.68;2.03;;;33.50;35.70;;;;;;4966525;28;20023;-71
2023/05/25 09:17:53;;;;;;;11.02;2.70;;;35.70;31.60;;;;;;4964265;28;20485;-73
2023/05/25 09:20:19;;;;;;;7.63;2.40;;;34.70;27.80;;;;;;4960971;28;20080;-72
2023/05/25 09:22:46;;;;;;;6.97;2.13;;;35.00;28.10;;;;;;4954401;28;20043;-71
2023/05/25 09:25:20;;;;;;;8.77;2.47;;;35.20;28.50;;;;;;4962169;28;20034;-71
2023/05/25 09:27:46;;;;;;;8.68;2.60;;;35.80;28.50;;;;;;4960830;28;20491;-71
2023/05/25 09:30:12;;;;;;;10.50;2.80;;;35.00;28.70;;;;;;4959736;28;20129;-71
2023/05/25 09:32:38;;;;;;;11.35;2.50;;;34.30;29.30;;;;;;4959639;28;20054;-72
2023/05/25 09:35:10;;;;;;;6.45;2.00;;;34.20;31.60;;;;;;4959525;28;20137;-72
2023/05/25 09:37:36;;;;;;;11.15;2.58;;;34.90;29.00;;;;;;4960006;28;20041;-73
2023/05/25 09:40:06;;;;;;;7.97;2.42;;;34.80;27.80;;;;;;4961938;28;20393;-72
2023/05/25 09:42:32;;;;;;;6.65;1.90;;;34.20;30.00;;;;;;4966053;28;20030;-72
2023/05/25 09:44:59;;;;;;;9.70;2.55;;;33.90;30.40;;;;;;4957903;28;20512;-72
2023/05/25 09:47:26;;;;;;;10.00;2.45;;;32.50;29.10;;;;;;4973621;28;20236;-71
2023/05/25 09:49:52;;;;;;;9.27;2.38;;;31.70;29.90;;;;;;4956257;28;20579;-71
2023/05/25 09:52:18;;;;;;;6.15;1.90;;;31.90;33.10;;;;;;4965424;28;20061;-72
2023/05/25 09:54:46;;;;;;;8.60;2.35;;;32.10;33.20;;;;;;4961455;28;20138;-72
2023/05/25 09:57:12;;;;;;;10.50;2.63;;;31.80;31.20;;;;;;4963503;28;20053;-72
2023/05/25 09:59:38;;;;;;;8.85;2.45;;;32.10;30.50;;;;;;4958072;28;20030;-71
2023/05/25 10:02:04;;;;;;;15.15;3.45;;;33.50;32.20;;;;;;4969126;28;20119;-72
2023/05/25 10:04:31;;;;;;;7.47;2.33;;;32.60;30.00;;;;;;4968692;28;20054;-71
2023/05/25 10:06:58;;;;;;;8.07;2.47;;;30.90;33.10;;;;;;4982687;28;20080;-71
2023/05/25 10:09:27;;;;;;;8.10;2.67;;;29.20;33.60;;;;;;4968143;28;20073;-72
2023/05/25 10:11:55;;;;;;;14.30;3.10;;;27.80;37.60;;;;;;4973949;28;20045;-71
2023/05/25 10:14:26;;;;;;;8.45;2.30;;;27.80;37.20;;;;;;4970283;28;20031;-72
2023/05/25 10:16:54;;;;;;;9.02;2.38;;;27.10;36.90;;;;;;4970037;28;20041;-72
2023/05/25 10:19:40;;;;;;;7.28;2.55;;;25.80;38.70;;;;;;4971731;28;20038;-71
2023/05/25 10:22:42;;;;;;;10.43;2.53;;;24.30;43.10;;;;;;4962945;28;20031;-71
2023/05/25 10:25:12;;;;;;;10.73;2.90;;;22.60;49.50;;;;;;4990540;28;20038;-71
2023/05/25 10:27:40;;;;;;;7.78;2.50;;;21.80;56.10;;;;;;4985358;28;20358;-71
2023/05/25 10:30:08;;;;;;;11.88;2.70;;;21.20;64.50;;;;;;4978925;28;21888;-70
2023/05/25 10:32:36;;;;;;;10.38;2.53;;;20.80;64.50;;;;;;4974692;28;20046;-71
2023/05/25 10:35:03;;;;;;;11.02;2.53;;;20.60;70.40;;;;;;4976482;28;20034;-71
2023/05/25 10:37:30;;;;;;;10.90;2.45;;;20.10;72.60;;;;;;4966267;28;20053;-71
2023/05/25 10:39:57;;;;;;;9.85;2.42;;;19.80;74.90;;;;;;4956897;28;20034;-70
2023/05/25 10:42:22;;;;;;;11.40;2.53;;;20.30;83.40;;;;;;4971705;28;20481;-71
2023/05/25 10:44:48;;;;;;;10.90;2.88;;;20.20;74.60;;;;;;4620284;28;10000326;-70
2023/05/25 10:47:15;;;;;;;7.07;2.42;;;20.20;70.60;;;;;;4960413;28;20030;-70
2023/05/25 10:49:52;;;;;;;9.02;2.05;;;20.20;76.00;;;;;;4980316;28;20022;-70
2023/05/25 10:52:19;;;;;;;10.82;2.70;;;20.30;89.00;;;;;;4957211;28;20039;-70
2023/05/25 10:54:46;;;;;;;9.50;2.70;;;20.50;74.00;;;;;;4963471;28;20029;-71
2023/05/25 10:57:18;;;;;;;8.30;2.40;;;20.40;69.50;;;;;;4982775;28;20069;-71
2023/05/25 10:59:48;;;;;;;8.98;2.30;;;20.60;75.70;;;;;;4974019;28;20031;-71
2023/05/25 11:02:15;;;;;;;10.90;3.03;;;21.20;75.30;;;;;;4980612;28;20079;-71
2023/05/25 11:04:41;;;;;;;7.13;2.10;;;23.00;68.40;;;;;;4976026;28;20129;-71
2023/05/25 11:07:12;;;;;;;7.50;2.17;;;26.30;51.90;;;;;;4976411;28;20137;-71
2023/05/25 11:09:42;;;;;;;8.70;2.40;;;29.10;39.50;;;;;;5058125;22;20080;-71
2023/05/25 11:12:18;;;;;;;9.23;2.60;;;30.70;39.20;;;;;;5053318;28;20119;-71
2023/05/25 11:14:43;;;;;;;8.63;2.42;;;31.60;32.90;;;;;;5060599;28;20028;-71
2023/05/25 11:17:13;;;;;;;10.65;2.83;;;30.30;36.00;;;;;;5039042;28;20456;-71
2023/05/25 11:19:52;;;;;;;6.75;2.28;;;28.80;35.70;;;;;;5045048;28;20440;-72
2023/05/25 11:22:22;;;;;;;7.05;2.30;;;28.10;37.90;;;;;;5042830;28;20043;-71
2023/05/25 11:24:52;;;;;;;7.70;2.22;;;28.00;38.90;;;;;;5052199;28;20032;-71
2023/05/25 11:27:22;;;;;;;6.68;2.50;;;27.70;39.10;;;;;;5039274;28;20051;-71
2023/05/25 11:29:52;;;;;;;8.07;2.28;;;26.90;38.50;;;;;;5047012;28;20031;-71
2023/05/25 11:32:18;;;;;;;6.45;2.30;;;27.10;44.70;;;;;;5045119;28;20092;-71
2023/05/25 11:34:46;;;;;;;10.70;2.33;;;26.90;39.10;;;;;;5035801;28;20466;-71
2023/05/25 11:37:16;;;;;;;8.55;2.35;;;25.70;39.80;;;;;;5035345;28;20103;-71
2023/05/25 11:39:47;;;;;;;5.30;2.10;;;25.40;41.90;;;;;;5040042;28;20029;-71
2023/05/25 11:42:13;;;;;;;;;;;25.80;47.60;;;;;;5045373;28;20025;-71
2023/05/25 11:44:40;;;;;;;5.72;2.53;;;26.70;48.20;;;;;;5014317;28;19917;-71
2023/05/25 11:47:07;;;;;;;6.85;2.38;;;27.30;44.40;;;;;;5037302;28;20067;-71
2023/05/25 11:49:41;;;;;;;6.57;2.30;;;27.10;39.50;;;;;;5038615;28;20033;-71
2023/05/25 11:52:07;;;;;;;6.35;1.90;;;25.90;47.10;;;;;;5039833;28;20475;-72
2023/05/25 11:54:33;;;;;;;6.95;2.35;;;25.90;49.50;;;;;;5041681;28;20021;-71
2023/05/25 11:57:00;;;;;;;9.32;2.40;;;25.10;42.40;;;;;;5034765;28;20704;-71
2023/05/25 11:59:26;;;;;;;10.73;2.50;;;24.20;47.30;;;;;;5041775;28;20024;-72
2023/05/25 12:02:00;;;;;;;8.93;2.55;;;23.60;51.10;;;;;;5040669;28;20033;-71
2023/05/25 12:04:26;;;;;;;8.27;2.40;;;23.40;52.10;;;;;;5042777;28;20021;-71
2023/05/25 12:06:52;;;;;;;7.60;2.90;;;22.50;49.80;;;;;;5045120;28;20032;-71
2023/05/25 12:09:21;;;;;;;10.70;2.20;;;22.00;58.70;;;;;;5039473;28;20048;-71
2023/05/25 12:11:47;;;;;;;10.13;2.67;;;22.00;68.50;;;;;;5044505;28;20074;-71
2023/05/25 12:14:13;;;;;;;10.55;2.50;;;21.70;60.40;;;;;;5035129;28;20020;-71
2023/05/25 12:16:40;;;;;;;8.27;2.22;;;22.00;69.70;;;;;;5039540;28;20089;-71
2023/05/25 12:19:10;;;;;;;13.63;2.67;;;23.20;61.50;;;;;;5039796;28;20043;-72
2023/05/25 12:21:37;;;;;;;8.75;2.33;;;23.60;54.80;;;;;;5040215;28;20028;-71
2023/05/25 12:24:04;;;;;;;8.32;2.40;;;23.30;55.00;;;;;;5034777;28;20037;-71
2023/05/25 12:26:31;;;;;;;10.13;2.85;;;23.20;56.80;;;;;;5025253;28;20787;-71
2023/05/25 12:29:09;;;;;;;5.80;2.33;;;23.80;60.50;;;;;;5043348;28;20635;-72
2023/05/25 12:31:37;;;;;;;9.35;2.70;;;24.00;58.30;;;;;;5043231;28;20037;-71
2023/05/25 12:34:02;;;;;;;8.77;2.30;;;24.30;52.10;;;;;;5037729;28;20082;-71
2023/05/25 12:36:50;;;;;;;6.03;2.58;;;24.00;47.00;;;;;;5037596;28;20036;-71
2023/05/25 12:39:28;;;;;;;6.85;2.15;;;22.70;52.30;;;;;;5045178;28;20122;-71
2023/05/25 12:41:55;;;;;;;9.13;2.72;;;22.00;56.90;;;;;;5041055;28;20042;-71